createdAt,value
2023-01-30T00:00:58.137Z,99882.13
2023-01-30T00:03:25.444Z,99871.19
2023-01-30T00:05:52.881Z,99864.53
2023-01-30T00:08:20.039Z,99863.00
2023-01-30T00:10:46.888Z,99851.97
2023-01-30T00:13:14.388Z,99855.66
2023-01-30T00:15:43.081Z,99851.13
2023-01-30T00:18:10.286Z,99847.06
2023-01-30T00:20:38.117Z,99838.47
2023-01-30T00:23:05.612Z,99835.16
2023-01-30T00:25:32.368Z,99823.19
2023-01-30T00:28:00.444Z,99825.97
2023-01-30T00:30:27.084Z,99819.25
2023-01-30T00:32:55.577Z,99818.09
2023-01-30T00:35:22.081Z,99816.31
2023-01-30T00:37:48.792Z,99805.94
2023-01-30T00:40:15.221Z,99804.41
2023-01-30T00:42:44.020Z,99805.09
2023-01-30T00:45:11.658Z,99809.63
2023-01-30T00:47:38.531Z,99800.19
2023-01-30T00:50:05.642Z,99803.97
2023-01-30T00:52:32.053Z,99805.72
2023-01-30T00:54:58.539Z,99804.91
2023-01-30T00:57:24.981Z,99809.97
2023-01-30T00:59:51.583Z,99802.19
2023-01-30T01:02:18.138Z,99799.69
2023-01-30T01:04:44.607Z,99811.78
2023-01-30T01:07:12.330Z,99814.19
2023-01-30T01:09:39.340Z,99822.22
2023-01-30T01:12:06.862Z,99821.06
2023-01-30T01:14:33.892Z,99831.22
2023-01-30T01:17:00.566Z,99835.19
2023-01-30T01:19:28.258Z,99838.13
2023-01-30T01:21:54.869Z,99853.22
2023-01-30T01:24:21.309Z,99868.09
2023-01-30T01:26:49.052Z,99873.94
2023-01-30T01:29:17.225Z,99866.09
2023-01-30T01:31:44.718Z,99857.19
2023-01-30T01:34:12.026Z,99873.84
2023-01-30T01:36:54.922Z,99885.72
2023-01-30T01:39:21.853Z,99881.28
2023-01-30T01:41:48.264Z,99889.19
2023-01-30T01:44:14.957Z,99888.34
2023-01-30T01:46:55.706Z,99885.06
2023-01-30T01:49:35.101Z,99883.13
2023-01-30T01:52:05.716Z,99892.47
2023-01-30T01:54:47.245Z,99873.19
2023-01-30T01:57:40.179Z,99862.91
2023-01-30T02:00:08.296Z,99874.19
2023-01-30T02:02:37.179Z,99878.78
2023-01-30T02:05:04.723Z,99876.63
2023-01-30T02:07:41.277Z,99879.06
2023-01-30T02:10:12.785Z,99878.22
2023-01-30T02:12:41.507Z,99880.00
2023-01-30T02:15:08.901Z,99903.09
2023-01-30T02:17:35.482Z,99894.41
2023-01-30T02:20:25.155Z,99886.91
2023-01-30T02:23:07.953Z,99895.66
2023-01-30T02:25:58.500Z,99899.81
2023-01-30T02:28:43.954Z,99906.38
2023-01-30T02:31:47.483Z,99897.19
2023-01-30T02:34:41.933Z,99888.56
2023-01-30T02:37:31.799Z,99902.72
2023-01-30T02:40:23.515Z,99877.72
2023-01-30T02:42:52.775Z,99871.09
2023-01-30T02:45:42.111Z,99864.19
2023-01-30T02:48:24.778Z,99875.50
2023-01-30T02:50:59.150Z,99866.84
2023-01-30T02:53:26.062Z,99869.72
2023-01-30T02:55:52.503Z,99852.50
2023-01-30T02:58:22.952Z,99852.66
2023-01-30T03:01:27.210Z,99846.78
2023-01-30T03:04:22.147Z,99860.81
2023-01-30T03:07:01.471Z,99876.88
2023-01-30T03:09:33.535Z,99872.56
2023-01-30T03:12:10.054Z,99873.88
2023-01-30T03:14:51.690Z,99859.16
2023-01-30T03:17:22.469Z,99836.47
2023-01-30T03:19:48.920Z,99822.69
2023-01-30T03:22:15.529Z,99821.06
2023-01-30T03:24:42.192Z,99805.63
2023-01-30T03:27:13.210Z,99804.97
2023-01-30T03:29:40.451Z,99795.78
2023-01-30T03:32:07.369Z,99792.00
2023-01-30T03:34:33.940Z,99763.63
2023-01-30T03:37:02.098Z,99740.13
2023-01-30T03:39:28.857Z,99719.25
2023-01-30T03:41:55.583Z,99702.50
2023-01-30T03:44:22.120Z,99696.16
2023-01-30T03:46:48.850Z,99727.75
2023-01-30T03:49:15.655Z,99731.72
2023-01-30T03:51:42.115Z,99740.97
2023-01-30T03:54:08.626Z,99746.69
2023-01-30T03:56:35.025Z,99748.13
2023-01-30T03:59:01.628Z,99747.69
2023-01-30T04:01:28.600Z,99749.25
2023-01-30T04:03:58.166Z,99750.75
2023-01-30T04:06:24.697Z,99740.50
2023-01-30T04:08:55.237Z,99742.81
2023-01-30T04:11:21.900Z,99750.38
2023-01-30T04:13:48.667Z,99762.91
2023-01-30T04:16:17.915Z,99781.88
2023-01-30T04:18:44.625Z,99797.56
2023-01-30T04:21:11.555Z,99805.81
2023-01-30T04:23:38.023Z,99813.38
2023-01-30T04:26:05.756Z,99810.34
2023-01-30T04:28:32.715Z,99819.44
2023-01-30T04:30:59.436Z,99819.44
2023-01-30T04:33:26.965Z,99828.97
2023-01-30T04:35:54.966Z,99813.00
2023-01-30T04:38:22.845Z,99811.03
2023-01-30T04:40:50.427Z,99804.06
2023-01-30T04:43:17.091Z,99797.78
2023-01-30T04:45:47.092Z,99795.75
2023-01-30T04:48:13.720Z,99795.03
2023-01-30T04:50:41.672Z,99800.84
2023-01-30T04:53:08.583Z,99783.84
2023-01-30T04:55:35.380Z,99779.53
2023-01-30T04:58:01.897Z,99770.28
2023-01-30T05:00:29.048Z,99759.13
2023-01-30T05:02:55.504Z,99736.41
2023-01-30T05:05:26.738Z,99716.84
2023-01-30T05:07:54.824Z,99703.56
2023-01-30T05:10:21.980Z,99690.19
2023-01-30T05:12:48.473Z,99674.56
2023-01-30T05:15:15.251Z,99681.38
2023-01-30T05:17:44.389Z,99680.34
2023-01-30T05:20:13.442Z,99670.78
2023-01-30T05:22:40.038Z,99657.41
2023-01-30T05:25:07.126Z,99635.22
2023-01-30T05:27:33.646Z,99625.25
2023-01-30T05:30:00.293Z,99616.34
2023-01-30T05:32:26.749Z,99600.63
2023-01-30T05:34:53.692Z,99608.63
2023-01-30T05:37:20.287Z,99611.22
2023-01-30T05:39:46.931Z,99603.47
2023-01-30T05:42:15.710Z,99607.03
2023-01-30T05:44:42.312Z,99603.56
2023-01-30T05:47:08.848Z,99612.16
2023-01-30T05:49:35.254Z,99623.47
2023-01-30T05:52:01.843Z,99626.56
2023-01-30T05:54:28.469Z,99626.97
2023-01-30T05:56:55.543Z,99640.38
2023-01-30T05:59:22.047Z,99617.53
2023-01-30T06:01:48.384Z,99604.97
2023-01-30T06:04:14.822Z,99605.06
2023-01-30T06:06:41.291Z,99610.84
2023-01-30T06:09:10.545Z,99594.91
2023-01-30T06:11:37.183Z,99591.16
2023-01-30T06:14:03.860Z,99573.63
2023-01-30T06:16:30.460Z,99571.97
2023-01-30T06:18:57.354Z,99594.59
2023-01-30T06:21:23.885Z,99592.72
2023-01-30T06:23:50.443Z,99588.94
2023-01-30T06:26:16.995Z,99583.63
2023-01-30T06:28:43.613Z,99572.78
2023-01-30T06:31:10.172Z,99557.69
2023-01-30T06:33:36.794Z,99545.19
2023-01-30T06:36:03.869Z,99552.56
2023-01-30T06:38:30.548Z,99555.41
2023-01-30T06:40:57.135Z,99564.84
2023-01-30T06:43:23.763Z,99544.16
2023-01-30T06:45:50.335Z,99510.59
2023-01-30T06:48:17.016Z,99513.53
2023-01-30T06:50:46.623Z,99514.16
2023-01-30T06:53:13.091Z,99515.06
2023-01-30T06:55:40.217Z,99506.28
2023-01-30T06:58:09.423Z,99499.25
2023-01-30T07:00:38.120Z,99498.41
2023-01-30T07:03:04.736Z,99502.91
2023-01-30T07:05:31.271Z,99498.50
2023-01-30T07:07:57.757Z,99456.00
2023-01-30T07:10:24.480Z,99447.06
2023-01-30T07:12:51.055Z,99423.97
2023-01-30T07:15:18.008Z,99425.31
2023-01-30T07:17:44.611Z,99424.25
2023-01-30T07:20:11.438Z,99412.47
2023-01-30T07:22:38.128Z,99419.41
2023-01-30T07:25:06.498Z,99412.25
2023-01-30T07:27:33.882Z,99405.94
2023-01-30T07:30:01.865Z,99422.97
2023-01-30T07:32:28.614Z,99440.28
2023-01-30T07:34:55.156Z,99438.03
2023-01-30T07:37:21.596Z,99424.81
2023-01-30T07:39:48.099Z,99422.81
2023-01-30T07:42:14.799Z,99421.63
2023-01-30T07:44:41.325Z,99431.06
2023-01-30T07:47:08.307Z,99410.66
2023-01-30T07:49:34.844Z,99414.03
2023-01-30T07:52:01.288Z,99415.69
2023-01-30T07:54:27.776Z,99425.03
2023-01-30T07:56:54.367Z,99427.75
2023-01-30T07:59:20.769Z,99421.53
2023-01-30T08:01:47.505Z,99409.06
2023-01-30T08:04:14.009Z,99400.94
2023-01-30T08:06:41.387Z,99413.13
2023-01-30T08:09:08.043Z,99404.28
2023-01-30T08:11:36.025Z,99397.88
2023-01-30T08:14:03.164Z,99384.50
2023-01-30T08:16:30.205Z,99388.56
2023-01-30T08:18:56.660Z,99388.81
2023-01-30T08:21:24.304Z,99391.09
2023-01-30T08:23:50.853Z,99417.00
2023-01-30T08:26:18.638Z,99417.88
2023-01-30T08:28:45.194Z,99413.91
2023-01-30T08:31:13.831Z,99395.78
2023-01-30T08:33:40.483Z,99380.84
2023-01-30T08:36:07.407Z,99381.69
2023-01-30T08:38:33.955Z,99381.44
2023-01-30T08:41:00.633Z,99394.25
2023-01-30T08:43:28.287Z,99397.56
2023-01-30T08:45:55.443Z,99382.31
2023-01-30T08:48:22.442Z,99391.88
2023-01-30T08:50:55.239Z,99391.50
2023-01-30T08:53:22.519Z,99394.84
2023-01-30T08:55:53.101Z,99375.38
2023-01-30T08:58:20.831Z,99366.88
2023-01-30T09:00:50.642Z,99352.09
2023-01-30T09:03:18.473Z,99343.47
2023-01-30T09:05:45.261Z,99356.16
2023-01-30T09:08:12.501Z,99338.91
2023-01-30T09:10:39.041Z,99328.00
2023-01-30T09:13:07.808Z,99309.00
2023-01-30T09:15:34.465Z,99286.50
2023-01-30T09:18:02.056Z,99294.78
2023-01-30T09:20:28.551Z,99298.91
2023-01-30T09:22:56.216Z,99293.94
2023-01-30T09:25:22.826Z,99284.38
2023-01-30T09:27:50.492Z,99274.41
2023-01-30T09:30:17.842Z,99270.44
2023-01-30T09:32:46.008Z,99275.75
2023-01-30T09:35:12.476Z,99264.13
2023-01-30T09:37:39.127Z,99250.59
2023-01-30T09:40:06.475Z,99241.22
2023-01-30T09:42:53.684Z,99262.75
2023-01-30T09:45:22.574Z,99267.06
2023-01-30T09:48:23.618Z,99278.50
2023-01-30T09:51:18.254Z,99274.63
2023-01-30T09:54:15.659Z,99269.00
2023-01-30T09:56:42.573Z,99266.53
2023-01-30T10:02:38.778Z,99275.88
2023-01-30T10:05:06.609Z,99254.84
2023-01-30T10:08:01.626Z,99235.94
2023-01-30T10:11:10.451Z,99238.06
2023-01-30T10:13:41.033Z,99241.66
2023-01-30T10:16:20.157Z,99224.06
2023-01-30T10:19:26.175Z,99206.88
2023-01-30T10:22:32.820Z,99217.41
2023-01-30T10:25:06.003Z,99216.31
2023-01-30T10:27:35.116Z,99229.09
2023-01-30T10:30:05.990Z,99214.50
2023-01-30T10:32:39.111Z,99228.81
2023-01-30T10:35:22.279Z,99216.59
2023-01-30T10:38:19.579Z,99220.38
2023-01-30T10:40:54.857Z,99221.31
2023-01-30T10:43:47.496Z,99220.41
2023-01-30T10:46:22.579Z,99223.97
2023-01-30T10:48:52.733Z,99215.22
2023-01-30T10:51:38.335Z,99211.50
2023-01-30T10:54:28.324Z,99200.25
2023-01-30T10:57:42.066Z,99214.31
2023-01-30T11:00:27.059Z,99199.84
2023-01-30T11:03:02.145Z,99206.13
2023-01-30T11:05:39.121Z,99214.44
2023-01-30T11:08:18.204Z,99217.78
2023-01-30T11:10:44.759Z,99236.97
2023-01-30T11:13:21.010Z,99240.81
2023-01-30T11:15:50.941Z,99246.53
2023-01-30T11:19:14.017Z,99246.97
2023-01-30T11:21:16.726Z,99244.59
2023-01-30T11:23:44.189Z,99248.78
2023-01-30T11:26:29.495Z,99254.16
2023-01-30T11:28:59.711Z,99253.34
2023-01-30T11:31:40.932Z,99245.59
2023-01-30T11:34:17.105Z,99258.19
2023-01-30T11:36:44.354Z,99267.09
2023-01-30T11:39:13.720Z,99268.06
2023-01-30T11:41:56.197Z,99263.34
2023-01-30T11:44:27.549Z,99270.00
2023-01-30T11:46:55.009Z,99262.91
2023-01-30T11:49:46.765Z,99260.88
2023-01-30T11:52:10.898Z,99274.75
2023-01-30T11:54:41.687Z,99286.13
2023-01-30T11:57:14.189Z,99291.97
2023-01-30T11:59:59.245Z,99314.50
2023-01-30T12:02:34.480Z,99333.09
2023-01-30T12:05:34.458Z,99359.75
2023-01-30T12:08:43.108Z,99362.81
2023-01-30T12:11:38.764Z,99374.59
2023-01-30T12:14:33.955Z,99391.41
2023-01-30T12:17:11.771Z,99399.16
2023-01-30T12:20:14.152Z,99432.75
2023-01-30T12:23:22.414Z,99448.53
2023-01-30T12:25:57.230Z,99457.28
2023-01-30T12:28:41.513Z,99467.97
2023-01-30T12:31:18.989Z,99469.16
2023-01-30T12:33:48.094Z,99485.41
2023-01-30T12:36:20.484Z,99484.97
2023-01-30T12:38:55.876Z,99488.69
2023-01-30T12:41:37.587Z,99507.56
2023-01-30T12:44:22.523Z,99519.31
2023-01-30T12:47:00.018Z,99514.50
2023-01-30T12:49:35.702Z,99508.00
2023-01-30T12:52:39.551Z,99524.22
2023-01-30T12:55:36.723Z,99537.41
2023-01-30T12:58:05.551Z,99552.75
2023-01-30T13:01:04.925Z,99571.72
2023-01-30T13:04:19.001Z,99565.28
2023-01-30T13:07:02.211Z,99590.34
2023-01-30T13:09:37.731Z,99586.41
2023-01-30T13:12:20.147Z,99600.34
2023-01-30T13:15:00.831Z,99611.38
2023-01-30T13:17:54.718Z,99618.09
2023-01-30T13:20:48.336Z,99613.47
2023-01-30T13:23:32.984Z,99612.97
2023-01-30T13:26:09.044Z,99606.41
2023-01-30T13:28:44.184Z,99604.00
2023-01-30T13:31:16.068Z,99603.19
2023-01-30T13:33:45.632Z,99605.09
2023-01-30T13:36:21.233Z,99602.81
2023-01-30T13:39:36.603Z,99602.25
2023-01-30T13:42:37.435Z,99598.63
2023-01-30T13:45:08.532Z,99592.78
2023-01-30T13:47:48.939Z,99581.16
2023-01-30T13:50:41.560Z,99591.69
2023-01-30T13:53:33.955Z,99592.53
2023-01-30T13:56:40.938Z,99597.31
2023-01-30T13:59:22.168Z,99596.72
2023-01-30T14:02:07.685Z,99594.69
2023-01-30T14:04:40.570Z,99595.03
2023-01-30T14:07:29.707Z,99604.25
2023-01-30T14:10:17.934Z,99598.16
2023-01-30T14:12:46.584Z,99595.63
2023-01-30T14:15:15.936Z,99594.19
2023-01-30T14:18:04.751Z,99612.53
2023-01-30T14:20:36.902Z,99605.22
2023-01-30T14:23:21.193Z,99615.50
2023-01-30T14:25:52.626Z,99632.75
2023-01-30T14:28:19.151Z,99641.72
2023-01-30T14:30:45.655Z,99634.78
2023-01-30T14:33:21.215Z,99631.19
2023-01-30T14:36:02.811Z,99658.00
2023-01-30T14:38:34.488Z,99658.97
2023-01-30T14:41:01.049Z,99661.63
2023-01-30T14:43:42.884Z,99673.09
2023-01-30T14:46:18.211Z,99680.06
2023-01-30T14:48:47.776Z,99681.81
2023-01-30T14:51:20.403Z,99675.03
2023-01-30T14:54:14.872Z,99682.06
2023-01-30T14:57:02.952Z,99685.66
2023-01-30T14:59:34.340Z,99687.47
2023-01-30T15:02:02.982Z,99691.31
2023-01-30T15:04:33.268Z,99706.00
2023-01-30T15:07:06.423Z,99702.53
2023-01-30T15:09:33.943Z,99710.22
2023-01-30T15:12:37.163Z,99706.88
2023-01-30T15:15:38.228Z,99716.31
2023-01-30T15:18:42.295Z,99708.53
2023-01-30T15:21:33.469Z,99703.63
2023-01-30T15:24:21.234Z,99705.06
2023-01-30T15:26:53.756Z,99710.47
2023-01-30T15:29:33.132Z,99731.06
2023-01-30T15:32:17.637Z,99726.25
2023-01-30T15:35:10.438Z,99730.34
2023-01-30T15:37:40.325Z,99739.69
2023-01-30T15:40:16.283Z,99735.00
2023-01-30T15:42:49.132Z,99741.72
2023-01-30T15:45:34.540Z,99749.41
2023-01-30T15:48:29.006Z,99754.66
2023-01-30T15:51:00.200Z,99758.50
2023-01-30T15:53:40.125Z,99758.13
2023-01-30T15:56:10.601Z,99765.69
2023-01-30T15:58:42.403Z,99767.00
2023-01-30T16:01:11.361Z,99765.56
2023-01-30T16:03:42.766Z,99760.53
2023-01-30T16:06:25.288Z,99752.34
2023-01-30T16:09:03.516Z,99771.78
2023-01-30T16:11:34.644Z,99770.56
2023-01-30T16:14:01.250Z,99770.81
2023-01-30T16:16:29.161Z,99770.09
2023-01-30T16:19:03.002Z,99773.66
2023-01-30T16:21:36.923Z,99768.53
2023-01-30T16:24:06.640Z,99762.44
2023-01-30T16:26:36.245Z,99776.44
2023-01-30T16:29:06.342Z,99783.50
2023-01-30T16:31:35.833Z,99784.34
2023-01-30T16:34:02.822Z,99783.84
2023-01-30T16:36:32.964Z,99786.84
2023-01-30T16:38:59.436Z,99789.72
2023-01-30T16:41:36.285Z,99800.25
2023-01-30T16:44:42.024Z,99806.56
2023-01-30T16:47:23.515Z,99810.16
2023-01-30T16:49:53.432Z,99814.47
2023-01-30T16:52:24.980Z,99828.97
2023-01-30T16:54:54.251Z,99835.31
2023-01-30T16:57:28.480Z,99832.91
2023-01-30T16:59:56.465Z,99839.13
2023-01-30T17:02:34.112Z,99828.59
2023-01-30T17:05:27.262Z,99838.28
2023-01-30T17:07:55.258Z,99835.03
2023-01-30T17:10:28.013Z,99846.31
2023-01-30T17:12:56.292Z,99847.97
2023-01-30T17:15:27.570Z,99847.97
2023-01-30T17:17:54.076Z,99841.88
2023-01-30T17:20:20.730Z,99842.59
2023-01-30T17:22:50.412Z,99847.13
2023-01-30T17:25:41.763Z,99851.22
2023-01-30T17:28:15.784Z,99859.00
2023-01-30T17:30:42.787Z,99859.72
2023-01-30T17:33:09.230Z,99864.88
2023-01-30T17:35:35.844Z,99871.81
2023-01-30T17:38:06.316Z,99886.69
2023-01-30T17:40:37.971Z,99893.03
2023-01-30T17:43:06.440Z,99893.03
2023-01-30T17:45:34.131Z,99897.47
2023-01-30T17:48:00.885Z,99899.22
2023-01-30T17:50:27.404Z,99900.41
2023-01-30T17:52:54.102Z,99904.84
2023-01-30T17:55:21.105Z,99904.63
2023-01-30T17:57:48.567Z,99902.34
2023-01-30T18:00:18.407Z,99903.03
2023-01-30T18:02:45.380Z,99910.72
2023-01-30T18:05:13.502Z,99931.91
2023-01-30T18:07:41.026Z,99918.63
2023-01-30T18:10:11.992Z,99913.88
2023-01-30T18:12:40.114Z,99925.31
2023-01-30T18:15:07.255Z,99932.53
2023-01-30T18:17:37.036Z,99946.94
2023-01-30T18:20:03.665Z,99948.59
2023-01-30T18:22:30.059Z,99960.22
2023-01-30T18:24:56.543Z,99962.63
2023-01-30T18:27:22.960Z,99970.31
2023-01-30T18:29:50.646Z,99972.22
2023-01-30T18:32:17.068Z,99978.31
2023-01-30T18:34:43.933Z,99983.50
2023-01-30T18:37:10.450Z,99985.69
2023-01-30T18:39:38.842Z,99996.22
2023-01-30T18:42:05.507Z,99996.53
2023-01-30T18:44:32.288Z,99997.72
2023-01-30T18:46:58.919Z,100006.06
2023-01-30T18:49:26.384Z,100022.09
2023-01-30T18:51:55.618Z,100019.56
2023-01-30T18:54:22.089Z,100023.16
2023-01-30T18:56:48.677Z,100029.38
2023-01-30T18:59:15.167Z,100031.28
2023-01-30T19:01:41.859Z,100033.06
2023-01-30T19:04:11.055Z,100021.69
2023-01-30T19:06:45.125Z,100029.59
2023-01-30T19:09:16.675Z,100028.75
2023-01-30T19:11:43.089Z,100020.94
2023-01-30T19:14:09.660Z,100031.63
2023-01-30T19:16:38.828Z,100039.38
2023-01-30T19:19:06.740Z,100045.63
2023-01-30T19:21:33.926Z,100043.47
2023-01-30T19:24:04.704Z,100048.75
2023-01-30T19:26:31.154Z,100063.84
2023-01-30T19:28:57.571Z,100078.47
2023-01-30T19:31:24.370Z,100079.72
2023-01-30T19:33:56.394Z,100073.63
2023-01-30T19:36:25.282Z,100071.81
2023-01-30T19:38:52.509Z,100077.00
2023-01-30T19:41:25.220Z,100078.34
2023-01-30T19:43:53.704Z,100076.44
2023-01-30T19:46:20.701Z,100074.34
2023-01-30T19:48:47.938Z,100082.25
2023-01-30T19:51:17.849Z,100090.13
2023-01-30T19:53:47.457Z,100081.41
2023-01-30T19:56:13.970Z,100085.81
2023-01-30T19:58:40.623Z,100074.56
2023-01-30T20:01:14.088Z,100082.34
2023-01-30T20:03:42.135Z,100077.19
2023-01-30T20:06:21.221Z,100085.94
2023-01-30T20:08:49.633Z,100087.38
2023-01-30T20:11:18.254Z,100097.59
2023-01-30T20:13:45.971Z,100101.06
2023-01-30T20:16:14.830Z,100104.75
2023-01-30T20:18:41.789Z,100109.59
2023-01-30T20:21:09.446Z,100114.78
2023-01-30T20:23:36.658Z,100111.28
2023-01-30T20:26:07.403Z,100112.56
2023-01-30T20:28:34.750Z,100124.03
2023-01-30T20:31:08.445Z,100122.16
2023-01-30T20:33:35.503Z,100124.56
2023-01-30T20:36:04.233Z,100123.59
2023-01-30T20:38:33.303Z,100123.00
2023-01-30T20:41:06.120Z,100125.63
2023-01-30T20:43:33.975Z,100124.03
2023-01-30T20:46:08.881Z,100118.91
2023-01-30T20:48:37.366Z,100114.34
2023-01-30T20:51:15.923Z,100117.94
2023-01-30T20:54:04.201Z,100118.69
2023-01-30T20:56:34.918Z,100121.41
2023-01-30T20:59:03.429Z,100127.44
2023-01-30T21:01:29.963Z,100128.38
2023-01-30T21:03:57.167Z,100139.84
2023-01-30T21:06:41.263Z,100123.34
2023-01-30T21:09:12.555Z,100138.41
2023-01-30T21:11:39.618Z,100137.22
2023-01-30T21:14:06.337Z,100125.75
2023-01-30T21:16:34.595Z,100125.00
2023-01-30T21:19:04.508Z,100133.97
2023-01-30T21:21:37.664Z,100143.66
2023-01-30T21:24:09.539Z,100134.91
2023-01-30T21:26:38.517Z,100139.56
2023-01-30T21:29:07.007Z,100143.34
2023-01-30T21:31:34.724Z,100145.06
2023-01-30T21:34:01.666Z,100149.44
2023-01-30T21:36:28.752Z,100152.09
2023-01-30T21:38:55.553Z,100151.16
2023-01-30T21:41:29.812Z,100146.94
2023-01-30T21:43:56.580Z,100151.38
2023-01-30T21:46:23.303Z,100146.19
2023-01-30T21:48:49.972Z,100149.69
2023-01-30T21:51:17.357Z,100152.34
2023-01-30T21:53:44.021Z,100150.41
2023-01-30T21:56:12.758Z,100155.59
2023-01-30T21:58:39.150Z,100152.00
2023-01-30T22:01:07.570Z,100157.34
2023-01-30T22:03:35.629Z,100153.66
2023-01-30T22:06:02.065Z,100155.47
2023-01-30T22:08:28.822Z,100167.69
2023-01-30T22:11:06.387Z,100158.94
2023-01-30T22:13:34.270Z,100168.53
2023-01-30T22:16:03.001Z,100170.84
2023-01-30T22:18:29.880Z,100170.97
2023-01-30T22:21:08.506Z,100167.25
2023-01-30T22:23:38.586Z,100163.13
2023-01-30T22:26:06.209Z,100165.66
2023-01-30T22:28:33.513Z,100166.03
2023-01-30T22:31:05.786Z,100184.16
2023-01-30T22:33:33.088Z,100181.31
2023-01-30T22:36:00.859Z,100182.88
2023-01-30T22:38:27.807Z,100185.66
2023-01-30T22:41:02.820Z,100190.16
2023-01-30T22:43:30.573Z,100198.81
2023-01-30T22:46:06.143Z,100200.28
2023-01-30T22:48:33.463Z,100198.47
2023-01-30T22:51:04.055Z,100187.00
2023-01-30T22:53:38.396Z,100198.25
2023-01-30T22:56:10.601Z,100202.06
2023-01-30T22:58:38.205Z,100200.41
2023-01-30T23:01:05.113Z,100211.16
2023-01-30T23:03:32.278Z,100200.50
2023-01-30T23:06:00.067Z,100204.19
2023-01-30T23:08:30.194Z,100200.72
2023-01-30T23:10:58.302Z,100205.03
2023-01-30T23:13:27.218Z,100207.66
2023-01-30T23:15:53.622Z,100204.81
2023-01-30T23:18:20.007Z,100205.56
2023-01-30T23:20:46.843Z,100209.38
2023-01-30T23:23:13.435Z,100201.78
2023-01-30T23:25:42.407Z,100216.66
2023-01-30T23:28:09.151Z,100213.59
2023-01-30T23:30:39.089Z,100207.56
2023-01-30T23:33:05.605Z,100206.81
2023-01-30T23:35:32.873Z,100204.63
2023-01-30T23:37:59.274Z,100208.22
2023-01-30T23:40:25.739Z,100191.94
2023-01-30T23:42:53.418Z,100192.28
2023-01-30T23:45:20.292Z,100192.59
2023-01-30T23:47:46.899Z,100200.28
2023-01-30T23:50:13.456Z,100191.13
2023-01-30T23:52:39.951Z,100200.72
2023-01-30T23:55:06.939Z,100204.59
2023-01-30T23:57:33.380Z,100194.69
2023-01-30T23:59:59.837Z,100187.72
